sensor_id;sensor_type;location;lat;lon;timestamp;pressure;altitude;pressure_sealevel;temperature;humidity
23223;BME280;11780;13.904;100.620;2023-04-19T00:00:52;100768.72;;;32.82;69.51
23223;BME280;11780;13.904;100.620;2023-04-19T00:03:22;100770.66;;;32.82;69.13
23223;BME280;11780;13.904;100.620;2023-04-19T00:05:55;100775.06;;;32.83;69.47
23223;BME280;11780;13.904;100.620;2023-04-19T00:08:28;100780.59;;;32.83;69.88
23223;BME280;11780;13.904;100.620;2023-04-19T00:10:58;100778.97;;;32.82;69.29
23223;BME280;11780;13.904;100.620;2023-04-19T00:13:29;100780.59;;;32.83;69.44
23223;BME280;11780;13.904;100.620;2023-04-19T00:15:59;100778.97;;;32.82;69.49
23223;BME280;11780;13.904;100.620;2023-04-19T00:18:29;100784.50;;;32.82;69.26
23223;BME280;11780;13.904;100.620;2023-04-19T00:21:00;100784.84;;;32.80;69.36
23223;BME280;11780;13.904;100.620;2023-04-19T00:23:31;100795.09;;;32.79;69.44
23223;BME280;11780;13.904;100.620;2023-04-19T00:26:02;100798.69;;;32.80;69.39
23223;BME280;11780;13.904;100.620;2023-04-19T00:28:33;100809.13;;;32.83;69.59
23223;BME280;11780;13.904;100.620;2023-04-19T00:31:03;100813.03;;;32.82;69.03
23223;BME280;11780;13.904;100.620;2023-04-19T00:33:34;100820.00;;;32.79;69.68
23223;BME280;11780;13.904;100.620;2023-04-19T00:36:04;100818.88;;;32.80;69.57
23223;BME280;11780;13.904;100.620;2023-04-19T00:38:35;100821.66;;;32.80;69.85
23223;BME280;11780;13.904;100.620;2023-04-19T00:41:05;100831.94;;;32.80;69.39
23223;BME280;11780;13.904;100.620;2023-04-19T00:43:35;100830.47;;;32.83;69.26
23223;BME280;11780;13.904;100.620;2023-04-19T00:46:06;100831.28;;;32.83;69.04
23223;BME280;11780;13.904;100.620;2023-04-19T00:48:37;100832.72;;;32.80;69.17
23223;BME280;11780;13.904;100.620;2023-04-19T00:51:08;100845.28;;;32.87;69.22
23223;BME280;11780;13.904;100.620;2023-04-19T00:53:39;100846.28;;;32.82;69.51
23223;BME280;11780;13.904;100.620;2023-04-19T00:56:10;100838.78;;;32.83;69.48
23223;BME280;11780;13.904;100.620;2023-04-19T00:58:42;100858.16;;;32.83;69.68
23223;BME280;11780;13.904;100.620;2023-04-19T01:01:13;100854.25;;;32.84;69.81
23223;BME280;11780;13.904;100.620;2023-04-19T01:03:44;100845.94;;;32.84;69.71
23223;BME280;11780;13.904;100.620;2023-04-19T01:06:15;100853.94;;;32.85;70.00
23223;BME280;11780;13.904;100.620;2023-04-19T01:08:45;100864.66;;;32.87;69.34
23223;BME280;11780;13.904;100.620;2023-04-19T01:11:26;100863.03;;;32.86;69.27
23223;BME280;11780;13.904;100.620;2023-04-19T01:14:19;100864.19;;;32.85;69.34
23223;BME280;11780;13.904;100.620;2023-04-19T01:16:49;100860.94;;;32.83;69.49
23223;BME280;11780;13.904;100.620;2023-04-19T01:19:20;100857.03;;;32.84;69.32
23223;BME280;11780;13.904;100.620;2023-04-19T01:21:50;100862.25;;;32.85;69.12
23223;BME280;11780;13.904;100.620;2023-04-19T01:24:21;100865.34;;;32.84;69.13
23223;BME280;11780;13.904;100.620;2023-04-19T01:26:52;100872.50;;;32.85;68.95
23223;BME280;11780;13.904;100.620;2023-04-19T01:29:23;100878.53;;;32.87;69.31
23223;BME280;11780;13.904;100.620;2023-04-19T01:31:53;100871.69;;;32.84;69.10
23223;BME280;11780;13.904;100.620;2023-04-19T01:34:26;100873.78;;;32.87;69.19
23223;BME280;11780;13.904;100.620;2023-04-19T01:36:56;100875.75;;;32.87;69.02
23223;BME280;11780;13.904;100.620;2023-04-19T01:39:26;100877.38;;;32.88;68.52
23223;BME280;11780;13.904;100.620;2023-04-19T01:41:57;100875.41;;;32.88;68.05
23223;BME280;11780;13.904;100.620;2023-04-19T01:44:29;100871.50;;;32.89;67.38
23223;BME280;11780;13.904;100.620;2023-04-19T01:46:59;100877.50;;;32.91;67.65
23223;BME280;11780;13.904;100.620;2023-04-19T01:49:31;100879.47;;;32.91;68.08
23223;BME280;11780;13.904;100.620;2023-04-19T01:52:02;100876.72;;;32.91;67.67
23223;BME280;11780;13.904;100.620;2023-04-19T01:54:32;100879.97;;;32.93;67.85
23223;BME280;11780;13.904;100.620;2023-04-19T01:57:03;100889.41;;;32.92;67.55
23223;BME280;11780;13.904;100.620;2023-04-19T01:59:33;100882.56;;;32.89;67.24
23223;BME280;11780;13.904;100.620;2023-04-19T02:02:06;100881.09;;;32.92;67.09
23223;BME280;11780;13.904;100.620;2023-04-19T02:04:38;100884.19;;;32.90;67.22
23223;BME280;11780;13.904;100.620;2023-04-19T02:07:08;100886.66;;;32.92;67.25
23223;BME280;11780;13.904;100.620;2023-04-19T02:09:38;100897.25;;;32.90;66.85
23223;BME280;11780;13.904;100.620;2023-04-19T02:12:11;100894.13;;;32.91;66.68
23223;BME280;11780;13.904;100.620;2023-04-19T02:14:43;100894.97;;;32.92;66.50
23223;BME280;11780;13.904;100.620;2023-04-19T02:17:13;100884.69;;;32.92;66.66
23223;BME280;11780;13.904;100.620;2023-04-19T02:19:44;100886.16;;;32.90;66.09
23223;BME280;11780;13.904;100.620;2023-04-19T02:22:14;100893.34;;;32.91;66.51
23223;BME280;11780;13.904;100.620;2023-04-19T02:24:45;100885.81;;;32.91;67.00
23223;BME280;11780;13.904;100.620;2023-04-19T02:27:16;100888.59;;;32.91;66.26
23223;BME280;11780;13.904;100.620;2023-04-19T02:29:46;100886.31;;;32.93;65.66
23223;BME280;11780;13.904;100.620;2023-04-19T02:32:17;100883.53;;;32.93;65.41
23223;BME280;11780;13.904;100.620;2023-04-19T02:34:47;100880.75;;;32.93;65.44
23223;BME280;11780;13.904;100.620;2023-04-19T02:37:17;100884.16;;;32.99;65.76
23223;BME280;11780;13.904;100.620;2023-04-19T02:39:48;100883.00;;;33.00;65.29
23223;BME280;11780;13.904;100.620;2023-04-19T02:42:20;100887.75;;;33.00;65.46
23223;BME280;11780;13.904;100.620;2023-04-19T02:44:52;100890.53;;;33.00;65.47
23223;BME280;11780;13.904;100.620;2023-04-19T02:47:23;100879.75;;;32.98;65.68
23223;BME280;11780;13.904;100.620;2023-04-19T02:49:53;100872.25;;;32.99;65.18
23223;BME280;11780;13.904;100.620;2023-04-19T02:52:25;100876.19;;;32.98;64.98
23223;BME280;11780;13.904;100.620;2023-04-19T02:54:56;100869.81;;;32.97;65.10
23223;BME280;11780;13.904;100.620;2023-04-19T02:57:27;100873.06;;;32.99;64.68
23223;BME280;11780;13.904;100.620;2023-04-19T02:59:57;100876.97;;;32.98;65.14
23223;BME280;11780;13.904;100.620;2023-04-19T03:02:28;100864.28;;;32.97;64.89
23223;BME280;11780;13.904;100.620;2023-04-19T03:04:59;100861.97;;;32.99;64.59
23223;BME280;11780;13.904;100.620;2023-04-19T03:07:29;100871.13;;;33.00;64.73
23223;BME280;11780;13.904;100.620;2023-04-19T03:10:00;100865.22;;;33.01;64.08
23223;BME280;11780;13.904;100.620;2023-04-19T03:12:31;100853.00;;;33.02;64.07
23223;BME280;11780;13.904;100.620;2023-04-19T03:15:01;100865.72;;;33.03;64.72
23223;BME280;11780;13.904;100.620;2023-04-19T03:17:32;100854.63;;;33.03;64.45
23223;BME280;11780;13.904;100.620;2023-04-19T03:20:03;100856.72;;;33.06;63.80
23223;BME280;11780;13.904;100.620;2023-04-19T03:22:39;100851.19;;;33.06;63.85
23223;BME280;11780;13.904;100.620;2023-04-19T03:25:10;100850.34;;;33.06;63.67
23223;BME280;11780;13.904;100.620;2023-04-19T03:27:47;100848.53;;;33.10;63.56
23223;BME280;11780;13.904;100.620;2023-04-19T03:30:32;100847.72;;;33.09;63.20
23223;BME280;11780;13.904;100.620;2023-04-19T03:33:02;100845.78;;;33.10;63.15
23223;BME280;11780;13.904;100.620;2023-04-19T03:35:33;100835.50;;;33.10;63.27
23223;BME280;11780;13.904;100.620;2023-04-19T03:38:09;100834.34;;;33.12;63.29
23223;BME280;11780;13.904;100.620;2023-04-19T03:40:40;100833.19;;;33.13;63.10
23223;BME280;11780;13.904;100.620;2023-04-19T03:43:13;100825.03;;;33.16;62.90
23223;BME280;11780;13.904;100.620;2023-04-19T03:45:44;100815.41;;;33.14;63.01
23223;BME280;11780;13.904;100.620;2023-04-19T03:48:14;100811.50;;;33.15;62.83
23223;BME280;11780;13.904;100.620;2023-04-19T03:50:45;100818.19;;;33.14;63.29
23223;BME280;11780;13.904;100.620;2023-04-19T03:53:17;100819.16;;;33.18;62.61
23223;BME280;11780;13.904;100.620;2023-04-19T03:55:48;100803.00;;;33.20;62.57
23223;BME280;11780;13.904;100.620;2023-04-19T03:58:18;100809.69;;;33.19;62.43
23223;BME280;11780;13.904;100.620;2023-04-19T04:01:02;100803.66;;;33.17;62.69
23223;BME280;11780;13.904;100.620;2023-04-19T04:03:33;100797.94;;;33.22;62.18
23223;BME280;11780;13.904;100.620;2023-04-19T04:06:03;100796.97;;;33.18;62.40
23223;BME280;11780;13.904;100.620;2023-04-19T04:08:33;100795.47;;;33.20;62.13
23223;BME280;11780;13.904;100.620;2023-04-19T04:11:04;100781.28;;;33.22;62.14
23223;BME280;11780;13.904;100.620;2023-04-19T04:13:34;100772.16;;;33.21;61.95
23223;BME280;11780;13.904;100.620;2023-04-19T04:16:10;100774.59;;;33.23;61.52
23223;BME280;11780;13.904;100.620;2023-04-19T04:18:41;100771.81;;;33.23;61.60
23223;BME280;11780;13.904;100.620;2023-04-19T04:21:14;100771.00;;;33.22;61.58
23223;BME280;11780;13.904;100.620;2023-04-19T04:23:46;100771.94;;;33.27;61.43
23223;BME280;11780;13.904;100.620;2023-04-19T04:26:27;100766.28;;;33.23;61.29
23223;BME280;11780;13.904;100.620;2023-04-19T04:29:17;100770.13;;;33.31;61.28
23223;BME280;11780;13.904;100.620;2023-04-19T04:31:49;100759.47;;;33.33;61.28
23223;BME280;11780;13.904;100.620;2023-04-19T04:34:25;100754.78;;;33.33;60.78
23223;BME280;11780;13.904;100.620;2023-04-19T04:37:03;100751.13;;;33.42;60.42
23223;BME280;11780;13.904;100.620;2023-04-19T04:39:35;100763.59;;;33.35;59.84
23223;BME280;11780;13.904;100.620;2023-04-19T04:42:09;100741.41;;;33.35;60.25
23223;BME280;11780;13.904;100.620;2023-04-19T04:44:41;100736.66;;;33.36;60.14
23223;BME280;11780;13.904;100.620;2023-04-19T04:47:12;100729.81;;;33.33;60.29
23223;BME280;11780;13.904;100.620;2023-04-19T04:49:50;100725.91;;;33.34;60.06
23223;BME280;11780;13.904;100.620;2023-04-19T04:52:21;100720.03;;;33.36;59.95
23223;BME280;11780;13.904;100.620;2023-04-19T04:55:18;100707.47;;;33.38;59.58
23223;BME280;11780;13.904;100.620;2023-04-19T04:57:48;100705.59;;;33.43;59.37
23223;BME280;11780;13.904;100.620;2023-04-19T05:00:29;100711.16;;;33.43;59.44
23223;BME280;11780;13.904;100.620;2023-04-19T05:03:03;100703.19;;;33.41;59.78
23223;BME280;11780;13.904;100.620;2023-04-19T05:05:40;100696.81;;;33.40;59.40
23223;BME280;11780;13.904;100.620;2023-04-19T05:08:11;100694.50;;;33.43;59.56
23223;BME280;11780;13.904;100.620;2023-04-19T05:10:42;100682.63;;;33.42;59.60
23223;BME280;11780;13.904;100.620;2023-04-19T05:13:13;100678.34;;;33.45;59.30
23223;BME280;11780;13.904;100.620;2023-04-19T05:15:43;100669.69;;;33.46;58.95
23223;BME280;11780;13.904;100.620;2023-04-19T05:18:14;100664.47;;;33.45;59.22
23223;BME280;11780;13.904;100.620;2023-04-19T05:20:44;100659.41;;;33.47;59.06
23223;BME280;11780;13.904;100.620;2023-04-19T05:23:20;100654.34;;;33.49;58.79
23223;BME280;11780;13.904;100.620;2023-04-19T05:25:51;100636.53;;;33.50;58.78
23223;BME280;11780;13.904;100.620;2023-04-19T05:28:24;100630.41;;;33.44;59.07
23223;BME280;11780;13.904;100.620;2023-04-19T05:31:07;100627.75;;;33.48;59.02
23223;BME280;11780;13.904;100.620;2023-04-19T05:33:55;100615.50;;;33.49;58.79
23223;BME280;11780;13.904;100.620;2023-04-19T05:36:26;100615.03;;;33.47;59.05
23223;BME280;11780;13.904;100.620;2023-04-19T05:38:56;100611.13;;;33.48;58.79
23223;BME280;11780;13.904;100.620;2023-04-19T05:41:27;100601.66;;;33.49;58.75
23223;BME280;11780;13.904;100.620;2023-04-19T05:43:57;100596.91;;;33.49;59.10
23223;BME280;11780;13.904;100.620;2023-04-19T05:46:28;100586.63;;;33.50;58.71
23223;BME280;11780;13.904;100.620;2023-04-19T05:48:59;100568.00;;;33.50;58.83
23223;BME280;11780;13.904;100.620;2023-04-19T05:51:48;100572.75;;;33.62;58.59
23223;BME280;11780;13.904;100.620;2023-04-19T05:54:51;100575.06;;;33.60;58.61
23223;BME280;11780;13.904;100.620;2023-04-19T05:57:21;100571.97;;;33.62;58.39
23223;BME280;11780;13.904;100.620;2023-04-19T05:59:52;100563.97;;;33.60;58.65
23223;BME280;11780;13.904;100.620;2023-04-19T06:02:25;100558.31;;;33.57;58.83
23223;BME280;11780;13.904;100.620;2023-04-19T06:04:55;100554.03;;;33.59;58.85
23223;BME280;11780;13.904;100.620;2023-04-19T06:07:37;100540.63;;;33.61;58.58
23223;BME280;11780;13.904;100.620;2023-04-19T06:10:21;100535.91;;;33.62;58.48
23223;BME280;11780;13.904;100.620;2023-04-19T06:13:00;100522.84;;;33.62;58.17
23223;BME280;11780;13.904;100.620;2023-04-19T06:15:30;100519.28;;;33.62;58.58
23223;BME280;11780;13.904;100.620;2023-04-19T06:18:01;100514.53;;;33.62;58.39
23223;BME280;11780;13.904;100.620;2023-04-19T06:20:31;100509.44;;;33.64;58.23
23223;BME280;11780;13.904;100.620;2023-04-19T06:23:01;100498.34;;;33.64;57.91
23223;BME280;11780;13.904;100.620;2023-04-19T06:48:30;100427.16;;;33.68;57.69
23223;BME280;11780;13.904;100.620;2023-04-19T06:51:01;100425.63;;;33.71;57.56
23223;BME280;11780;13.904;100.620;2023-04-19T06:53:32;100424.84;;;33.70;57.51
23223;BME280;11780;13.904;100.620;2023-04-19T06:56:04;100416.94;;;33.73;57.48
23223;BME280;11780;13.904;100.620;2023-04-19T06:58:35;100411.41;;;33.73;57.17
23223;BME280;11780;13.904;100.620;2023-04-19T07:01:08;100398.34;;;33.73;57.28
23223;BME280;11780;13.904;100.620;2023-04-19T07:03:39;100388.41;;;33.72;57.26
23223;BME280;11780;13.904;100.620;2023-04-19T07:06:10;100378.03;;;33.69;57.27
23223;BME280;11780;13.904;100.620;2023-04-19T07:08:42;100377.31;;;33.72;56.99
23223;BME280;11780;13.904;100.620;2023-04-19T07:11:18;100365.31;;;33.68;57.23
23223;BME280;11780;13.904;100.620;2023-04-19T07:14:04;100364.97;;;33.69;57.16
23223;BME280;11780;13.904;100.620;2023-04-19T07:16:35;100361.06;;;33.70;57.27
23223;BME280;11780;13.904;100.620;2023-04-19T07:19:06;100349.69;;;33.76;56.79
23223;BME280;11780;13.904;100.620;2023-04-19T07:21:37;100348.28;;;33.82;57.33
23223;BME280;11780;13.904;100.620;2023-04-19T07:24:08;100341.31;;;33.88;57.14
23223;BME280;11780;13.904;100.620;2023-04-19T07:26:39;100343.66;;;33.86;56.86
23223;BME280;11780;13.904;100.620;2023-04-19T07:29:09;100336.91;;;33.87;56.80
23223;BME280;11780;13.904;100.620;2023-04-19T07:31:42;100318.31;;;33.88;56.70
23223;BME280;11780;13.904;100.620;2023-04-19T07:34:12;100312.69;;;33.84;56.97
23223;BME280;11780;13.904;100.620;2023-04-19T07:36:44;100304.81;;;33.86;57.05
23223;BME280;11780;13.904;100.620;2023-04-19T07:39:14;100304.81;;;33.86;56.99
23223;BME280;11780;13.904;100.620;2023-04-19T07:41:45;100304.00;;;33.85;57.13
23223;BME280;11780;13.904;100.620;2023-04-19T07:44:18;100304.34;;;33.84;56.99
23223;BME280;11780;13.904;100.620;2023-04-19T07:46:49;100296.03;;;33.84;56.91
23223;BME280;11780;13.904;100.620;2023-04-19T07:49:20;100299.38;;;33.90;56.42
23223;BME280;11780;13.904;100.620;2023-04-19T07:51:51;100280.28;;;33.88;56.82
23223;BME280;11780;13.904;100.620;2023-04-19T07:54:21;100287.78;;;33.88;57.22
23223;BME280;11780;13.904;100.620;2023-04-19T07:56:52;100278.44;;;33.92;57.11
23223;BME280;11780;13.904;100.620;2023-04-19T07:59:23;100274.72;;;33.88;57.47
23223;BME280;11780;13.904;100.620;2023-04-19T08:01:55;100270.81;;;33.89;57.76
23223;BME280;11780;13.904;100.620;2023-04-19T08:04:26;100270.94;;;33.93;57.44
23223;BME280;11780;13.904;100.620;2023-04-19T08:06:57;100255.06;;;33.93;58.00
23223;BME280;11780;13.904;100.620;2023-04-19T08:09:29;100265.47;;;33.96;58.07
23223;BME280;11780;13.904;100.620;2023-04-19T08:12:00;100260.38;;;33.98;58.55
23223;BME280;11780;13.904;100.620;2023-04-19T08:14:32;100258.13;;;34.04;58.93
23223;BME280;11780;13.904;100.620;2023-04-19T08:17:22;100250.59;;;34.05;58.76
23223;BME280;11780;13.904;100.620;2023-04-19T08:20:01;100244.34;;;34.08;59.19
23223;BME280;11780;13.904;100.620;2023-04-19T08:22:33;100235.66;;;34.09;59.56
23223;BME280;11780;13.904;100.620;2023-04-19T08:25:04;100233.69;;;34.10;59.80
23223;BME280;11780;13.904;100.620;2023-04-19T08:27:35;100229.28;;;34.09;59.90
23223;BME280;11780;13.904;100.620;2023-04-19T08:30:07;100228.94;;;34.10;60.09
23223;BME280;11780;13.904;100.620;2023-04-19T08:32:38;100219.09;;;34.13;60.04
23223;BME280;11780;13.904;100.620;2023-04-19T08:35:09;100217.47;;;34.12;60.25
23223;BME280;11780;13.904;100.620;2023-04-19T08:37:41;100217.13;;;34.13;60.25
23223;BME280;11780;13.904;100.620;2023-04-19T08:40:11;100211.66;;;34.17;60.21
23223;BME280;11780;13.904;100.620;2023-04-19T08:42:43;100210.78;;;34.13;60.46
23223;BME280;11780;13.904;100.620;2023-04-19T08:45:16;100202.91;;;34.15;60.69
23223;BME280;11780;13.904;100.620;2023-04-19T08:47:57;100199.31;;;34.14;60.66
23223;BME280;11780;13.904;100.620;2023-04-19T08:50:30;100197.34;;;34.15;60.67
23223;BME280;11780;13.904;100.620;2023-04-19T08:53:17;100192.97;;;34.14;60.63
23223;BME280;11780;13.904;100.620;2023-04-19T08:55:52;100187.50;;;34.18;60.90
23223;BME280;11780;13.904;100.620;2023-04-19T08:58:30;100187.50;;;34.18;60.83
23223;BME280;11780;13.904;100.620;2023-04-19T09:01:05;100184.34;;;34.19;60.54
23223;BME280;11780;13.904;100.620;2023-04-19T09:03:53;100183.91;;;34.17;60.47
23223;BME280;11780;13.904;100.620;2023-04-19T09:06:43;100172.38;;;34.15;60.92
23223;BME280;11780;13.904;100.620;2023-04-19T09:09:25;100173.09;;;34.12;60.64
23223;BME280;11780;13.904;100.620;2023-04-19T09:12:15;100171.53;;;34.14;60.88
23223;BME280;11780;13.904;100.620;2023-04-19T09:14:47;100165.66;;;34.16;60.64
23223;BME280;11780;13.904;100.620;2023-04-19T09:17:30;100158.94;;;34.17;60.47
23223;BME280;11780;13.904;100.620;2023-04-19T09:20:05;100160.53;;;34.18;60.67
23223;BME280;11780;13.904;100.620;2023-04-19T09:23:02;100152.66;;;34.20;60.34
23223;BME280;11780;13.904;100.620;2023-04-19T09:26:01;100162.13;;;34.19;60.54
23223;BME280;11780;13.904;100.620;2023-04-19T09:29:06;100151.41;;;34.18;60.57
23223;BME280;11780;13.904;100.620;2023-04-19T09:31:58;100166.44;;;34.16;60.67
23223;BME280;11780;13.904;100.620;2023-04-19T09:34:35;100168.84;;;34.18;60.46
23223;BME280;11780;13.904;100.620;2023-04-19T09:37:21;100168.13;;;34.21;60.28
23223;BME280;11780;13.904;100.620;2023-04-19T09:40:22;100152.66;;;34.20;60.18
23223;BME280;11780;13.904;100.620;2023-04-19T09:43:01;100164.19;;;34.22;60.46
23223;BME280;11780;13.904;100.620;2023-04-19T09:45:54;100164.63;;;34.24;60.21
23223;BME280;11780;13.904;100.620;2023-04-19T09:48:26;100166.97;;;34.22;60.00
23223;BME280;11780;13.904;100.620;2023-04-19T09:51:00;100167.88;;;34.26;59.85
23223;BME280;11780;13.904;100.620;2023-04-19T09:53:40;100158.31;;;34.24;59.70
23223;BME280;11780;13.904;100.620;2023-04-19T09:56:15;100149.59;;;34.25;59.35
23223;BME280;11780;13.904;100.620;2023-04-19T09:58:50;100161.16;;;34.27;59.37
23223;BME280;11780;13.904;100.620;2023-04-19T10:01:46;100149.22;;;34.27;59.42
23223;BME280;11780;13.904;100.620;2023-04-19T10:04:22;100155.16;;;34.25;59.12
23223;BME280;11780;13.904;100.620;2023-04-19T10:07:15;100152.38;;;34.25;58.92
23223;BME280;11780;13.904;100.620;2023-04-19T10:09:58;100150.38;;;34.26;59.01
23223;BME280;11780;13.904;100.620;2023-04-19T10:12:48;100149.97;;;34.24;58.76
23223;BME280;11780;13.904;100.620;2023-04-19T10:15:46;100140.03;;;34.23;58.46
23223;BME280;11780;13.904;100.620;2023-04-19T10:18:31;100145.59;;;34.23;58.55
23223;BME280;11780;13.904;100.620;2023-04-19T10:21:10;100153.47;;;34.21;58.44
23223;BME280;11780;13.904;100.620;2023-04-19T10:23:45;100164.13;;;34.19;58.09
23223;BME280;11780;13.904;100.620;2023-04-19T10:26:18;100156.97;;;34.18;58.30
23223;BME280;11780;13.904;100.620;2023-04-19T10:28:54;100163.66;;;34.16;58.15
23223;BME280;11780;13.904;100.620;2023-04-19T10:31:32;100164.13;;;34.19;58.01
23223;BME280;11780;13.904;100.620;2023-04-19T10:34:03;100164.84;;;34.15;57.64
23223;BME280;11780;13.904;100.620;2023-04-19T10:36:38;100164.50;;;34.17;57.55
23223;BME280;11780;13.904;100.620;2023-04-19T10:39:42;100165.22;;;34.14;57.78
23223;BME280;11780;13.904;100.620;2023-04-19T10:45:41;100170.75;;;34.14;57.39
23223;BME280;11780;13.904;100.620;2023-04-19T10:48:39;100168.69;;;34.11;57.19
23223;BME280;11780;13.904;100.620;2023-04-19T10:51:18;100178.63;;;34.12;57.03
23223;BME280;11780;13.904;100.620;2023-04-19T10:54:02;100185.81;;;34.13;57.23
23223;BME280;11780;13.904;100.620;2023-04-19T10:57:05;100188.91;;;34.11;56.75
23223;BME280;11780;13.904;100.620;2023-04-19T11:00:22;100194.13;;;34.13;56.49
23223;BME280;11780;13.904;100.620;2023-04-19T11:02:57;100204.41;;;34.12;56.47
23223;BME280;11780;13.904;100.620;2023-04-19T11:08:43;100200.38;;;34.10;56.70
23223;BME280;11780;13.904;100.620;2023-04-19T11:11:19;100198.78;;;34.09;56.23
23223;BME280;11780;13.904;100.620;2023-04-19T11:13:57;100206.38;;;34.12;56.62
23223;BME280;11780;13.904;100.620;2023-04-19T11:16:32;100216.25;;;34.09;56.33
23223;BME280;11780;13.904;100.620;2023-04-19T11:19:16;100215.88;;;34.11;56.73
23223;BME280;11780;13.904;100.620;2023-04-19T11:21:49;100213.47;;;34.09;56.62
23223;BME280;11780;13.904;100.620;2023-04-19T11:24:22;100221.44;;;34.11;56.14
23223;BME280;11780;13.904;100.620;2023-04-19T11:26:55;100215.78;;;34.07;56.37
23223;BME280;11780;13.904;100.620;2023-04-19T11:29:28;100216.25;;;34.09;56.29
23223;BME280;11780;13.904;100.620;2023-04-19T11:32:00;100226.16;;;34.10;56.29
23223;BME280;11780;13.904;100.620;2023-04-19T11:34:40;100227.69;;;34.08;56.17
23223;BME280;11780;13.904;100.620;2023-04-19T11:37:11;100236.84;;;34.08;56.20
23223;BME280;11780;13.904;100.620;2023-04-19T11:39:57;100223.75;;;34.09;56.02
23223;BME280;11780;13.904;100.620;2023-04-19T11:42:30;100234.06;;;34.08;55.77
23223;BME280;11780;13.904;100.620;2023-04-19T11:45:03;100235.56;;;34.06;55.75
23223;BME280;11780;13.904;100.620;2023-04-19T11:47:50;100249.88;;;34.08;55.78
23223;BME280;11780;13.904;100.620;2023-04-19T11:53:09;100256.16;;;34.05;55.83
23223;BME280;11780;13.904;100.620;2023-04-19T11:55:46;100252.56;;;34.04;56.04
23223;BME280;11780;13.904;100.620;2023-04-19T11:58:43;100256.16;;;34.05;56.18
23223;BME280;11780;13.904;100.620;2023-04-19T12:01:17;100255.69;;;34.03;56.23
23223;BME280;11780;13.904;100.620;2023-04-19T12:03:53;100253.28;;;34.01;56.66
23223;BME280;11780;13.904;100.620;2023-04-19T12:06:27;100265.56;;;34.00;56.83
23223;BME280;11780;13.904;100.620;2023-04-19T12:09:06;100267.97;;;34.02;56.72
23223;BME280;11780;13.904;100.620;2023-04-19T12:11:44;100266.25;;;33.97;57.14
23223;BME280;11780;13.904;100.620;2023-04-19T12:14:51;100267.09;;;33.97;57.10
23223;BME280;11780;13.904;100.620;2023-04-19T12:17:29;100278.19;;;33.97;57.22
23223;BME280;11780;13.904;100.620;2023-04-19T12:20:01;100276.19;;;33.98;57.50
23223;BME280;11780;13.904;100.620;2023-04-19T12:22:32;100282.56;;;33.98;57.69
23223;BME280;11780;13.904;100.620;2023-04-19T12:25:03;100274.94;;;33.95;57.70
23223;BME280;11780;13.904;100.620;2023-04-19T12:27:34;100274.56;;;33.97;57.75
23223;BME280;11780;13.904;100.620;2023-04-19T12:30:05;100277.34;;;33.97;58.12
23223;BME280;11780;13.904;100.620;2023-04-19T12:32:36;100281.75;;;33.98;58.82
23223;BME280;11780;13.904;100.620;2023-04-19T12:35:07;100282.91;;;33.97;59.13
23223;BME280;11780;13.904;100.620;2023-04-19T12:37:47;100286.84;;;33.96;59.29
23223;BME280;11780;13.904;100.620;2023-04-19T12:40:18;100296.00;;;33.96;59.26
23223;BME280;11780;13.904;100.620;2023-04-19T12:44:54;100307.78;;;33.93;59.50
23223;BME280;11780;13.904;100.620;2023-04-19T12:47:26;100311.47;;;33.97;59.75
23223;BME280;11780;13.904;100.620;2023-04-19T12:49:56;100318.09;;;34.09;59.59
23223;BME280;11780;13.904;100.620;2023-04-19T12:52:27;100320.88;;;33.93;59.71
23223;BME280;11780;13.904;100.620;2023-04-19T12:54:58;100329.19;;;33.93;59.95
23223;BME280;11780;13.904;100.620;2023-04-19T12:57:29;100335.06;;;33.91;60.28
23223;BME280;11780;13.904;100.620;2023-04-19T13:00:00;100338.53;;;33.88;60.61
23223;BME280;11780;13.904;100.620;2023-04-19T13:02:33;100344.34;;;33.83;61.24
23223;BME280;11780;13.904;100.620;2023-04-19T13:05:04;100343.06;;;33.80;61.68
23223;BME280;11780;13.904;100.620;2023-04-19T13:07:35;100346.75;;;33.84;61.55
23223;BME280;11780;13.904;100.620;2023-04-19T13:10:06;100352.66;;;33.83;62.34
23223;BME280;11780;13.904;100.620;2023-04-19T13:12:36;100350.84;;;33.75;62.50
23223;BME280;11780;13.904;100.620;2023-04-19T13:15:07;100355.69;;;33.78;62.47
23223;BME280;11780;13.904;100.620;2023-04-19T13:17:38;100357.09;;;33.71;62.34
23223;BME280;11780;13.904;100.620;2023-04-19T13:20:09;100363.47;;;33.72;62.70
23223;BME280;11780;13.904;100.620;2023-04-19T13:22:40;100363.22;;;33.77;62.60
23223;BME280;11780;13.904;100.620;2023-04-19T13:25:12;100368.00;;;33.64;63.01
23223;BME280;11780;13.904;100.620;2023-04-19T13:27:43;100367.75;;;33.69;63.13
23223;BME280;11780;13.904;100.620;2023-04-19T13:30:13;100364.97;;;33.69;63.34
23223;BME280;11780;13.904;100.620;2023-04-19T13:32:44;100370.88;;;33.68;63.61
23223;BME280;11780;13.904;100.620;2023-04-19T13:35:15;100371.47;;;33.61;63.44
23223;BME280;11780;13.904;100.620;2023-04-19T13:37:46;100375.06;;;33.62;64.28
23223;BME280;11780;13.904;100.620;2023-04-19T13:40:17;100384.41;;;33.57;64.36
23223;BME280;11780;13.904;100.620;2023-04-19T13:42:48;100393.66;;;33.61;64.22